sensor_id;sensor_type;location;lat;lon;timestamp;P1;durP1;ratioP1;P2;durP2;ratioP2
28373;SDS011;15616;40.148;-102.718;2022-07-18T00:01:49;11.38;;;9.13;;
28373;SDS011;15616;40.148;-102.718;2022-07-18T00:04:14;11.20;;;9.48;;
28373;SDS011;15616;40.148;-102.718;2022-07-18T00:06:40;12.32;;;9.60;;
28373;SDS011;15616;40.148;-102.718;2022-07-18T00:09:06;11.70;;;9.52;;
28373;SDS011;15616;40.148;-102.718;2022-07-18T00:11:32;11.13;;;9.48;;
28373;SDS011;15616;40.148;-102.718;2022-07-18T00:13:58;12.23;;;9.10;;
28373;SDS011;15616;40.148;-102.718;2022-07-18T00:16:24;12.10;;;9.48;;
28373;SDS011;15616;40.148;-102.718;2022-07-18T00:18:50;11.90;;;9.60;;
28373;SDS011;15616;40.148;-102.718;2022-07-18T00:21:17;10.13;;;8.95;;
28373;SDS011;15616;40.148;-102.718;2022-07-18T00:23:43;10.48;;;8.75;;
28373;SDS011;15616;40.148;-102.718;2022-07-18T00:26:09;12.40;;;9.68;;
28373;SDS011;15616;40.148;-102.718;2022-07-18T00:28:34;11.55;;;9.23;;
28373;SDS011;15616;40.148;-102.718;2022-07-18T00:31:00;11.77;;;9.13;;
28373;SDS011;15616;40.148;-102.718;2022-07-18T00:33:26;11.55;;;9.75;;
28373;SDS011;15616;40.148;-102.718;2022-07-18T00:35:52;12.98;;;9.52;;
28373;SDS011;15616;40.148;-102.718;2022-07-18T00:38:18;11.27;;;9.57;;
28373;SDS011;15616;40.148;-102.718;2022-07-18T00:40:44;11.35;;;9.23;;
28373;SDS011;15616;40.148;-102.718;2022-07-18T00:43:13;11.20;;;8.98;;
28373;SDS011;15616;40.148;-102.718;2022-07-18T00:45:43;11.80;;;9.23;;
28373;SDS011;15616;40.148;-102.718;2022-07-18T00:48:11;12.40;;;9.27;;
28373;SDS011;15616;40.148;-102.718;2022-07-18T00:50:37;11.23;;;9.07;;
28373;SDS011;15616;40.148;-102.718;2022-07-18T00:53:05;13.50;;;9.35;;
28373;SDS011;15616;40.148;-102.718;2022-07-18T00:55:31;12.32;;;9.23;;
28373;SDS011;15616;40.148;-102.718;2022-07-18T00:57:57;11.85;;;9.15;;
28373;SDS011;15616;40.148;-102.718;2022-07-18T01:00:23;11.90;;;8.93;;
28373;SDS011;15616;40.148;-102.718;2022-07-18T01:03:08;11.95;;;9.15;;
28373;SDS011;15616;40.148;-102.718;2022-07-18T01:05:34;11.95;;;8.70;;
28373;SDS011;15616;40.148;-102.718;2022-07-18T01:08:00;12.85;;;9.65;;
28373;SDS011;15616;40.148;-102.718;2022-07-18T01:10:27;11.10;;;9.00;;
28373;SDS011;15616;40.148;-102.718;2022-07-18T01:12:53;11.50;;;9.05;;
28373;SDS011;15616;40.148;-102.718;2022-07-18T01:15:19;10.77;;;8.65;;
28373;SDS011;15616;40.148;-102.718;2022-07-18T01:17:45;10.70;;;8.77;;
28373;SDS011;15616;40.148;-102.718;2022-07-18T01:20:11;11.40;;;9.25;;
28373;SDS011;15616;40.148;-102.718;2022-07-18T01:22:37;11.77;;;8.85;;
28373;SDS011;15616;40.148;-102.718;2022-07-18T01:25:06;11.45;;;9.50;;
28373;SDS011;15616;40.148;-102.718;2022-07-18T01:27:33;11.63;;;8.70;;
28373;SDS011;15616;40.148;-102.718;2022-07-18T01:29:59;11.43;;;9.30;;
28373;SDS011;15616;40.148;-102.718;2022-07-18T01:32:25;12.75;;;9.30;;
28373;SDS011;15616;40.148;-102.718;2022-07-18T01:34:51;11.35;;;8.63;;
28373;SDS011;15616;40.148;-102.718;2022-07-18T01:37:17;11.63;;;8.88;;
28373;SDS011;15616;40.148;-102.718;2022-07-18T01:39:44;11.35;;;8.82;;
28373;SDS011;15616;40.148;-102.718;2022-07-18T01:42:11;10.60;;;9.07;;
28373;SDS011;15616;40.148;-102.718;2022-07-18T01:44:39;10.75;;;8.52;;
28373;SDS011;15616;40.148;-102.718;2022-07-18T01:47:05;11.68;;;9.23;;
28373;SDS011;15616;40.148;-102.718;2022-07-18T01:49:33;13.23;;;9.30;;
28373;SDS011;15616;40.148;-102.718;2022-07-18T01:52:00;11.18;;;8.75;;
28373;SDS011;15616;40.148;-102.718;2022-07-18T01:54:27;12.85;;;9.55;;
28373;SDS011;15616;40.148;-102.718;2022-07-18T01:56:55;12.38;;;8.93;;
28373;SDS011;15616;40.148;-102.718;2022-07-18T01:59:21;11.55;;;8.93;;
28373;SDS011;15616;40.148;-102.718;2022-07-18T02:01:48;10.48;;;8.68;;
28373;SDS011;15616;40.148;-102.718;2022-07-18T02:04:15;10.07;;;8.73;;
28373;SDS011;15616;40.148;-102.718;2022-07-18T02:06:41;12.10;;;8.60;;
28373;SDS011;15616;40.148;-102.718;2022-07-18T02:09:07;11.75;;;9.20;;
28373;SDS011;15616;40.148;-102.718;2022-07-18T02:11:34;9.82;;;8.40;;
28373;SDS011;15616;40.148;-102.718;2022-07-18T02:14:00;13.63;;;8.65;;
28373;SDS011;15616;40.148;-102.718;2022-07-18T02:16:27;10.88;;;8.52;;
28373;SDS011;15616;40.148;-102.718;2022-07-18T02:18:54;10.75;;;8.30;;
28373;SDS011;15616;40.148;-102.718;2022-07-18T02:21:20;14.27;;;8.32;;
28373;SDS011;15616;40.148;-102.718;2022-07-18T02:23:46;14.15;;;8.52;;
28373;SDS011;15616;40.148;-102.718;2022-07-18T02:26:13;11.70;;;8.20;;
28373;SDS011;15616;40.148;-102.718;2022-07-18T02:28:39;9.90;;;8.60;;
28373;SDS011;15616;40.148;-102.718;2022-07-18T02:31:05;10.18;;;8.15;;
28373;SDS011;15616;40.148;-102.718;2022-07-18T02:33:31;10.77;;;8.13;;
28373;SDS011;15616;40.148;-102.718;2022-07-18T02:35:58;9.73;;;7.90;;
28373;SDS011;15616;40.148;-102.718;2022-07-18T02:38:24;9.65;;;8.48;;
28373;SDS011;15616;40.148;-102.718;2022-07-18T02:40:50;10.82;;;8.07;;
28373;SDS011;15616;40.148;-102.718;2022-07-18T02:43:15;10.90;;;8.13;;
28373;SDS011;15616;40.148;-102.718;2022-07-18T02:45:41;11.10;;;8.48;;
28373;SDS011;15616;40.148;-102.718;2022-07-18T02:48:07;9.45;;;7.90;;
28373;SDS011;15616;40.148;-102.718;2022-07-18T02:50:34;11.73;;;8.80;;
28373;SDS011;15616;40.148;-102.718;2022-07-18T02:53:00;13.63;;;8.80;;
28373;SDS011;15616;40.148;-102.718;2022-07-18T02:55:26;10.27;;;8.55;;
28373;SDS011;15616;40.148;-102.718;2022-07-18T02:57:52;10.25;;;8.18;;
28373;SDS011;15616;40.148;-102.718;2022-07-18T03:00:18;9.57;;;8.38;;
28373;SDS011;15616;40.148;-102.718;2022-07-18T03:02:44;10.68;;;8.32;;
28373;SDS011;15616;40.148;-102.718;2022-07-18T03:05:10;9.43;;;7.70;;
28373;SDS011;15616;40.148;-102.718;2022-07-18T03:07:37;11.00;;;8.15;;
28373;SDS011;15616;40.148;-102.718;2022-07-18T03:10:04;10.98;;;8.00;;
28373;SDS011;15616;40.148;-102.718;2022-07-18T03:12:31;10.50;;;8.57;;
28373;SDS011;15616;40.148;-102.718;2022-07-18T03:14:57;10.77;;;8.35;;
28373;SDS011;15616;40.148;-102.718;2022-07-18T03:17:24;11.95;;;8.55;;
28373;SDS011;15616;40.148;-102.718;2022-07-18T03:19:50;11.23;;;7.97;;
28373;SDS011;15616;40.148;-102.718;2022-07-18T03:22:16;9.80;;;7.93;;
28373;SDS011;15616;40.148;-102.718;2022-07-18T03:24:42;10.45;;;8.20;;
28373;SDS011;15616;40.148;-102.718;2022-07-18T03:27:08;12.25;;;7.60;;
28373;SDS011;15616;40.148;-102.718;2022-07-18T03:29:34;10.85;;;7.75;;
28373;SDS011;15616;40.148;-102.718;2022-07-18T03:32:00;9.40;;;7.72;;
28373;SDS011;15616;40.148;-102.718;2022-07-18T03:34:26;10.88;;;8.27;;
28373;SDS011;15616;40.148;-102.718;2022-07-18T03:36:52;9.52;;;7.68;;
28373;SDS011;15616;40.148;-102.718;2022-07-18T03:39:18;11.55;;;7.70;;
28373;SDS011;15616;40.148;-102.718;2022-07-18T03:41:44;12.15;;;7.85;;
28373;SDS011;15616;40.148;-102.718;2022-07-18T03:44:10;10.38;;;7.82;;
28373;SDS011;15616;40.148;-102.718;2022-07-18T03:46:36;9.05;;;7.78;;
28373;SDS011;15616;40.148;-102.718;2022-07-18T03:49:02;10.07;;;7.78;;
28373;SDS011;15616;40.148;-102.718;2022-07-18T03:51:29;10.65;;;8.13;;
28373;SDS011;15616;40.148;-102.718;2022-07-18T03:53:54;10.50;;;7.68;;
28373;SDS011;15616;40.148;-102.718;2022-07-18T03:56:20;9.82;;;7.05;;
28373;SDS011;15616;40.148;-102.718;2022-07-18T03:58:46;10.25;;;7.30;;
28373;SDS011;15616;40.148;-102.718;2022-07-18T04:01:12;9.65;;;7.53;;
28373;SDS011;15616;40.148;-102.718;2022-07-18T04:03:38;9.68;;;7.63;;
28373;SDS011;15616;40.148;-102.718;2022-07-18T04:06:04;9.45;;;8.00;;
28373;SDS011;15616;40.148;-102.718;2022-07-18T04:08:30;9.60;;;7.90;;
28373;SDS011;15616;40.148;-102.718;2022-07-18T04:10:56;11.25;;;8.13;;
28373;SDS011;15616;40.148;-102.718;2022-07-18T04:13:22;9.75;;;7.35;;
28373;SDS011;15616;40.148;-102.718;2022-07-18T04:15:48;9.88;;;7.53;;
28373;SDS011;15616;40.148;-102.718;2022-07-18T04:18:14;9.52;;;7.32;;
28373;SDS011;15616;40.148;-102.718;2022-07-18T04:20:40;11.88;;;7.15;;
28373;SDS011;15616;40.148;-102.718;2022-07-18T04:23:06;10.20;;;7.35;;
28373;SDS011;15616;40.148;-102.718;2022-07-18T04:25:37;10.55;;;7.03;;
28373;SDS011;15616;40.148;-102.718;2022-07-18T04:28:05;9.63;;;7.18;;
28373;SDS011;15616;40.148;-102.718;2022-07-18T04:30:32;9.30;;;7.13;;
28373;SDS011;15616;40.148;-102.718;2022-07-18T04:33:03;10.75;;;7.65;;
28373;SDS011;15616;40.148;-102.718;2022-07-18T04:35:30;9.82;;;7.72;;
28373;SDS011;15616;40.148;-102.718;2022-07-18T04:37:57;8.68;;;7.03;;
28373;SDS011;15616;40.148;-102.718;2022-07-18T04:40:23;11.30;;;7.38;;
28373;SDS011;15616;40.148;-102.718;2022-07-18T04:42:49;10.07;;;6.60;;
28373;SDS011;15616;40.148;-102.718;2022-07-18T04:45:15;9.98;;;7.18;;
28373;SDS011;15616;40.148;-102.718;2022-07-18T04:47:43;10.07;;;6.80;;
28373;SDS011;15616;40.148;-102.718;2022-07-18T04:50:09;8.25;;;6.50;;
28373;SDS011;15616;40.148;-102.718;2022-07-18T04:52:36;9.05;;;6.40;;
28373;SDS011;15616;40.148;-102.718;2022-07-18T04:55:07;9.85;;;6.30;;
28373;SDS011;15616;40.148;-102.718;2022-07-18T04:57:34;10.23;;;6.75;;
28373;SDS011;15616;40.148;-102.718;2022-07-18T05:00:02;10.23;;;6.40;;
28373;SDS011;15616;40.148;-102.718;2022-07-18T05:02:41;10.82;;;6.25;;
28373;SDS011;15616;40.148;-102.718;2022-07-18T05:05:09;9.30;;;5.70;;
28373;SDS011;15616;40.148;-102.718;2022-07-18T05:07:37;7.95;;;5.65;;
28373;SDS011;15616;40.148;-102.718;2022-07-18T05:10:04;6.78;;;5.32;;
28373;SDS011;15616;40.148;-102.718;2022-07-18T05:12:39;7.57;;;5.60;;
28373;SDS011;15616;40.148;-102.718;2022-07-18T05:15:07;8.23;;;6.10;;
28373;SDS011;15616;40.148;-102.718;2022-07-18T05:17:36;26.10;;;7.00;;
28373;SDS011;15616;40.148;-102.718;2022-07-18T05:20:03;11.93;;;6.40;;
28373;SDS011;15616;40.148;-102.718;2022-07-18T05:22:37;9.57;;;6.03;;
28373;SDS011;15616;40.148;-102.718;2022-07-18T05:25:03;11.35;;;5.90;;
28373;SDS011;15616;40.148;-102.718;2022-07-18T05:27:31;16.17;;;6.50;;
28373;SDS011;15616;40.148;-102.718;2022-07-18T05:29:57;11.18;;;6.05;;
28373;SDS011;15616;40.148;-102.718;2022-07-18T05:32:26;10.68;;;6.15;;
28373;SDS011;15616;40.148;-102.718;2022-07-18T05:34:53;12.00;;;5.90;;
28373;SDS011;15616;40.148;-102.718;2022-07-18T05:37:19;16.13;;;5.63;;
28373;SDS011;15616;40.148;-102.718;2022-07-18T05:39:45;11.70;;;5.88;;
28373;SDS011;15616;40.148;-102.718;2022-07-18T05:42:11;11.13;;;5.88;;
28373;SDS011;15616;40.148;-102.718;2022-07-18T05:44:37;10.18;;;6.47;;
28373;SDS011;15616;40.148;-102.718;2022-07-18T05:47:03;10.30;;;6.72;;
28373;SDS011;15616;40.148;-102.718;2022-07-18T05:49:29;13.70;;;6.38;;
28373;SDS011;15616;40.148;-102.718;2022-07-18T05:51:55;12.60;;;6.03;;
28373;SDS011;15616;40.148;-102.718;2022-07-18T05:54:21;20.85;;;6.90;;
28373;SDS011;15616;40.148;-102.718;2022-07-18T05:56:48;13.57;;;7.10;;
28373;SDS011;15616;40.148;-102.718;2022-07-18T05:59:15;13.35;;;6.05;;
28373;SDS011;15616;40.148;-102.718;2022-07-18T06:01:42;14.77;;;7.07;;
28373;SDS011;15616;40.148;-102.718;2022-07-18T06:04:08;10.10;;;5.88;;
28373;SDS011;15616;40.148;-102.718;2022-07-18T06:06:34;17.77;;;6.40;;
28373;SDS011;15616;40.148;-102.718;2022-07-18T06:09:00;20.45;;;6.43;;
28373;SDS011;15616;40.148;-102.718;2022-07-18T06:11:26;18.50;;;6.40;;
28373;SDS011;15616;40.148;-102.718;2022-07-18T06:13:52;13.82;;;6.50;;
28373;SDS011;15616;40.148;-102.718;2022-07-18T06:16:18;12.45;;;6.53;;
28373;SDS011;15616;40.148;-102.718;2022-07-18T06:18:44;15.35;;;6.63;;
28373;SDS011;15616;40.148;-102.718;2022-07-18T06:21:10;13.40;;;6.40;;
28373;SDS011;15616;40.148;-102.718;2022-07-18T06:23:36;12.50;;;5.78;;
28373;SDS011;15616;40.148;-102.718;2022-07-18T06:26:02;22.02;;;6.97;;
28373;SDS011;15616;40.148;-102.718;2022-07-18T06:28:28;20.85;;;6.30;;
28373;SDS011;15616;40.148;-102.718;2022-07-18T06:30:54;18.40;;;6.22;;
28373;SDS011;15616;40.148;-102.718;2022-07-18T06:33:20;22.63;;;6.95;;
28373;SDS011;15616;40.148;-102.718;2022-07-18T06:35:46;19.27;;;5.97;;
28373;SDS011;15616;40.148;-102.718;2022-07-18T06:38:13;18.58;;;6.72;;
28373;SDS011;15616;40.148;-102.718;2022-07-18T06:40:40;21.65;;;6.22;;
28373;SDS011;15616;40.148;-102.718;2022-07-18T06:43:06;17.90;;;6.50;;
28373;SDS011;15616;40.148;-102.718;2022-07-18T06:45:32;22.33;;;6.53;;
28373;SDS011;15616;40.148;-102.718;2022-07-18T06:47:59;25.50;;;6.97;;
28373;SDS011;15616;40.148;-102.718;2022-07-18T06:50:25;19.73;;;6.25;;
28373;SDS011;15616;40.148;-102.718;2022-07-18T06:52:51;22.42;;;6.88;;
28373;SDS011;15616;40.148;-102.718;2022-07-18T06:55:17;25.40;;;7.03;;
28373;SDS011;15616;40.148;-102.718;2022-07-18T06:57:44;30.17;;;6.97;;
28373;SDS011;15616;40.148;-102.718;2022-07-18T07:00:11;13.65;;;6.78;;
28373;SDS011;15616;40.148;-102.718;2022-07-18T07:02:45;18.05;;;6.88;;
28373;SDS011;15616;40.148;-102.718;2022-07-18T07:05:13;19.30;;;6.63;;
28373;SDS011;15616;40.148;-102.718;2022-07-18T07:07:41;17.45;;;6.80;;
28373;SDS011;15616;40.148;-102.718;2022-07-18T07:10:07;24.60;;;7.03;;
28373;SDS011;15616;40.148;-102.718;2022-07-18T07:12:40;25.63;;;6.80;;
28373;SDS011;15616;40.148;-102.718;2022-07-18T07:15:07;19.52;;;6.68;;
28373;SDS011;15616;40.148;-102.718;2022-07-18T07:17:34;23.50;;;7.03;;
28373;SDS011;15616;40.148;-102.718;2022-07-18T07:20:01;22.85;;;7.50;;
28373;SDS011;15616;40.148;-102.718;2022-07-18T07:22:27;19.92;;;7.30;;
28373;SDS011;15616;40.148;-102.718;2022-07-18T07:24:53;17.17;;;6.97;;
28373;SDS011;15616;40.148;-102.718;2022-07-18T07:27:19;19.88;;;7.03;;
28373;SDS011;15616;40.148;-102.718;2022-07-18T07:29:45;21.45;;;7.95;;
28373;SDS011;15616;40.148;-102.718;2022-07-18T07:32:11;22.75;;;7.57;;
28373;SDS011;15616;40.148;-102.718;2022-07-18T07:34:37;19.70;;;7.38;;
28373;SDS011;15616;40.148;-102.718;2022-07-18T07:37:03;17.85;;;7.57;;
28373;SDS011;15616;40.148;-102.718;2022-07-18T07:39:30;29.52;;;7.97;;
28373;SDS011;15616;40.148;-102.718;2022-07-18T07:41:55;15.10;;;7.63;;
28373;SDS011;15616;40.148;-102.718;2022-07-18T07:44:21;15.35;;;7.70;;
28373;SDS011;15616;40.148;-102.718;2022-07-18T07:46:47;19.17;;;7.15;;
28373;SDS011;15616;40.148;-102.718;2022-07-18T07:49:14;19.67;;;7.03;;
28373;SDS011;15616;40.148;-102.718;2022-07-18T07:51:40;25.42;;;7.18;;
28373;SDS011;15616;40.148;-102.718;2022-07-18T07:54:06;25.48;;;7.55;;
28373;SDS011;15616;40.148;-102.718;2022-07-18T07:56:32;25.45;;;7.20;;
28373;SDS011;15616;40.148;-102.718;2022-07-18T07:58:58;18.60;;;7.80;;
28373;SDS011;15616;40.148;-102.718;2022-07-18T08:01:26;31.80;;;8.38;;
28373;SDS011;15616;40.148;-102.718;2022-07-18T08:03:52;30.48;;;7.55;;
28373;SDS011;15616;40.148;-102.718;2022-07-18T08:06:18;18.33;;;7.47;;
28373;SDS011;15616;40.148;-102.718;2022-07-18T08:08:44;15.40;;;7.45;;
28373;SDS011;15616;40.148;-102.718;2022-07-18T08:11:10;19.05;;;7.47;;
28373;SDS011;15616;40.148;-102.718;2022-07-18T08:13:36;19.63;;;8.18;;
28373;SDS011;15616;40.148;-102.718;2022-07-18T08:16:02;22.75;;;8.45;;
28373;SDS011;15616;40.148;-102.718;2022-07-18T08:18:28;21.30;;;7.75;;
28373;SDS011;15616;40.148;-102.718;2022-07-18T08:20:54;25.23;;;7.68;;
28373;SDS011;15616;40.148;-102.718;2022-07-18T08:23:20;19.80;;;7.63;;
28373;SDS011;15616;40.148;-102.718;2022-07-18T08:25:46;21.20;;;8.18;;
28373;SDS011;15616;40.148;-102.718;2022-07-18T08:28:12;33.97;;;8.68;;
28373;SDS011;15616;40.148;-102.718;2022-07-18T08:30:39;18.45;;;7.70;;
28373;SDS011;15616;40.148;-102.718;2022-07-18T08:33:06;22.83;;;8.00;;
28373;SDS011;15616;40.148;-102.718;2022-07-18T08:35:32;23.38;;;8.15;;
28373;SDS011;15616;40.148;-102.718;2022-07-18T08:37:59;25.42;;;8.70;;
28373;SDS011;15616;40.148;-102.718;2022-07-18T08:40:26;14.20;;;8.00;;
28373;SDS011;15616;40.148;-102.718;2022-07-18T08:42:53;20.48;;;8.10;;
28373;SDS011;15616;40.148;-102.718;2022-07-18T08:45:21;27.77;;;8.70;;
28373;SDS011;15616;40.148;-102.718;2022-07-18T08:47:48;20.40;;;8.68;;
28373;SDS011;15616;40.148;-102.718;2022-07-18T08:50:14;23.13;;;8.43;;
28373;SDS011;15616;40.148;-102.718;2022-07-18T08:52:40;15.45;;;8.55;;
28373;SDS011;15616;40.148;-102.718;2022-07-18T08:55:07;20.52;;;8.60;;
28373;SDS011;15616;40.148;-102.718;2022-07-18T08:57:33;17.65;;;7.88;;
28373;SDS011;15616;40.148;-102.718;2022-07-18T09:00:01;20.60;;;8.07;;
28373;SDS011;15616;40.148;-102.718;2022-07-18T09:02:29;27.13;;;9.02;;
28373;SDS011;15616;40.148;-102.718;2022-07-18T09:04:55;23.85;;;9.40;;
28373;SDS011;15616;40.148;-102.718;2022-07-18T09:07:27;19.50;;;8.52;;
28373;SDS011;15616;40.148;-102.718;2022-07-18T09:10:02;24.27;;;9.45;;
28373;SDS011;15616;40.148;-102.718;2022-07-18T09:12:30;24.98;;;8.50;;
28373;SDS011;15616;40.148;-102.718;2022-07-18T09:14:57;26.50;;;8.93;;
28373;SDS011;15616;40.148;-102.718;2022-07-18T09:17:28;26.77;;;8.35;;
28373;SDS011;15616;40.148;-102.718;2022-07-18T09:20:04;14.50;;;8.32;;
28373;SDS011;15616;40.148;-102.718;2022-07-18T09:22:40;16.70;;;8.45;;
28373;SDS011;15616;40.148;-102.718;2022-07-18T09:25:17;26.92;;;8.43;;
28373;SDS011;15616;40.148;-102.718;2022-07-18T09:27:48;21.15;;;9.32;;
28373;SDS011;15616;40.148;-102.718;2022-07-18T09:30:26;28.08;;;9.00;;
28373;SDS011;15616;40.148;-102.718;2022-07-18T09:35:30;21.05;;;9.23;;
28373;SDS011;15616;40.148;-102.718;2022-07-18T09:38:09;27.45;;;9.05;;
28373;SDS011;15616;40.148;-102.718;2022-07-18T09:40:40;23.23;;;9.32;;
28373;SDS011;15616;40.148;-102.718;2022-07-18T09:43:08;22.42;;;9.38;;
28373;SDS011;15616;40.148;-102.718;2022-07-18T09:45:52;19.35;;;8.77;;
28373;SDS011;15616;40.148;-102.718;2022-07-18T09:48:20;24.67;;;8.82;;
28373;SDS011;15616;40.148;-102.718;2022-07-18T09:53:19;19.38;;;10.02;;
28373;SDS011;15616;40.148;-102.718;2022-07-18T09:55:58;23.77;;;9.48;;
28373;SDS011;15616;40.148;-102.718;2022-07-18T09:58:26;32.10;;;10.57;;
28373;SDS011;15616;40.148;-102.718;2022-07-18T10:00:56;21.98;;;8.57;;
28373;SDS011;15616;40.148;-102.718;2022-07-18T10:03:23;21.67;;;8.50;;
28373;SDS011;15616;40.148;-102.718;2022-07-18T10:05:50;25.38;;;9.00;;
28373;SDS011;15616;40.148;-102.718;2022-07-18T10:08:19;23.80;;;8.93;;
28373;SDS011;15616;40.148;-102.718;2022-07-18T10:10:51;27.00;;;9.50;;
28373;SDS011;15616;40.148;-102.718;2022-07-18T10:13:18;21.10;;;10.60;;
28373;SDS011;15616;40.148;-102.718;2022-07-18T10:15:46;25.33;;;10.00;;
28373;SDS011;15616;40.148;-102.718;2022-07-18T10:18:16;25.65;;;9.73;;
28373;SDS011;15616;40.148;-102.718;2022-07-18T10:20:49;19.77;;;9.20;;
28373;SDS011;15616;40.148;-102.718;2022-07-18T10:23:26;19.98;;;9.52;;
28373;SDS011;15616;40.148;-102.718;2022-07-18T10:28:31;22.90;;;9.50;;
28373;SDS011;15616;40.148;-102.718;2022-07-18T10:31:11;22.90;;;8.05;;
28373;SDS011;15616;40.148;-102.718;2022-07-18T10:33:43;20.92;;;8.90;;
28373;SDS011;15616;40.148;-102.718;2022-07-18T10:36:13;20.83;;;9.30;;
28373;SDS011;15616;40.148;-102.718;2022-07-18T10:39:14;20.20;;;9.40;;
28373;SDS011;15616;40.148;-102.718;2022-07-18T10:47:05;30.30;;;9.43;;
28373;SDS011;15616;40.148;-102.718;2022-07-18T11:00:24;26.10;;;10.23;;
28373;SDS011;15616;40.148;-102.718;2022-07-18T11:15:58;39.42;;;9.95;;
28373;SDS011;15616;40.148;-102.718;2022-07-18T11:21:22;32.78;;;10.05;;
28373;SDS011;15616;40.148;-102.718;2022-07-18T11:23:52;25.35;;;10.40;;
28373;SDS011;15616;40.148;-102.718;2022-07-18T11:26:22;22.60;;;10.50;;
28373;SDS011;15616;40.148;-102.718;2022-07-18T11:28:56;31.00;;;10.95;;
28373;SDS011;15616;40.148;-102.718;2022-07-18T11:31:26;25.17;;;9.68;;
28373;SDS011;15616;40.148;-102.718;2022-07-18T11:33:53;20.40;;;10.38;;
28373;SDS011;15616;40.148;-102.718;2022-07-18T11:36:20;23.33;;;10.02;;
28373;SDS011;15616;40.148;-102.718;2022-07-18T11:38:54;29.73;;;9.50;;
28373;SDS011;15616;40.148;-102.718;2022-07-18T11:41:25;24.50;;;10.02;;
28373;SDS011;15616;40.148;-102.718;2022-07-18T11:43:52;24.25;;;11.18;;
28373;SDS011;15616;40.148;-102.718;2022-07-18T11:46:21;23.70;;;9.80;;
28373;SDS011;15616;40.148;-102.718;2022-07-18T11:48:56;22.58;;;11.05;;
28373;SDS011;15616;40.148;-102.718;2022-07-18T11:51:32;24.20;;;11.00;;
28373;SDS011;15616;40.148;-102.718;2022-07-18T11:54:03;26.50;;;10.32;;
28373;SDS011;15616;40.148;-102.718;2022-07-18T11:56:30;23.95;;;12.05;;
28373;SDS011;15616;40.148;-102.718;2022-07-18T11:58:56;24.02;;;11.38;;
28373;SDS011;15616;40.148;-102.718;2022-07-18T12:01:32;20.20;;;10.40;;
28373;SDS011;15616;40.148;-102.718;2022-07-18T12:03:58;33.28;;;11.65;;
28373;SDS011;15616;40.148;-102.718;2022-07-18T12:06:24;29.60;;;11.88;;
28373;SDS011;15616;40.148;-102.718;2022-07-18T12:08:53;26.30;;;10.10;;
28373;SDS011;15616;40.148;-102.718;2022-07-18T12:11:32;25.45;;;10.48;;
28373;SDS011;15616;40.148;-102.718;2022-07-18T12:19:12;18.25;;;10.77;;
28373;SDS011;15616;40.148;-102.718;2022-07-18T12:29:54;20.85;;;9.38;;
28373;SDS011;15616;40.148;-102.718;2022-07-18T12:32:46;23.15;;;9.18;;
28373;SDS011;15616;40.148;-102.718;2022-07-18T12:35:19;18.85;;;9.25;;
28373;SDS011;15616;40.148;-102.718;2022-07-18T12:40:17;26.00;;;11.38;;
28373;SDS011;15616;40.148;-102.718;2022-07-18T12:42:43;18.83;;;10.52;;
28373;SDS011;15616;40.148;-102.718;2022-07-18T12:45:10;17.05;;;9.95;;
28373;SDS011;15616;40.148;-102.718;2022-07-18T12:47:37;24.95;;;10.07;;
28373;SDS011;15616;40.148;-102.718;2022-07-18T12:50:07;22.70;;;10.35;;
28373;SDS011;15616;40.148;-102.718;2022-07-18T12:52:33;24.75;;;10.98;;
28373;SDS011;15616;40.148;-102.718;2022-07-18T12:54:59;24.20;;;9.25;;
28373;SDS011;15616;40.148;-102.718;2022-07-18T12:57:26;26.65;;;10.52;;
28373;SDS011;15616;40.148;-102.718;2022-07-18T12:59:52;18.92;;;11.15;;
28373;SDS011;15616;40.148;-102.718;2022-07-18T13:02:18;26.95;;;11.48;;
28373;SDS011;15616;40.148;-102.718;2022-07-18T13:04:44;27.95;;;11.93;;
28373;SDS011;15616;40.148;-102.718;2022-07-18T13:07:10;24.83;;;10.30;;
28373;SDS011;15616;40.148;-102.718;2022-07-18T13:09:37;21.90;;;11.70;;
28373;SDS011;15616;40.148;-102.718;2022-07-18T13:12:03;19.17;;;10.75;;
28373;SDS011;15616;40.148;-102.718;2022-07-18T13:14:29;19.52;;;10.35;;
28373;SDS011;15616;40.148;-102.718;2022-07-18T13:16:55;31.25;;;10.05;;
28373;SDS011;15616;40.148;-102.718;2022-07-18T13:19:21;22.48;;;10.60;;
28373;SDS011;15616;40.148;-102.718;2022-07-18T13:21:48;23.23;;;10.65;;
28373;SDS011;15616;40.148;-102.718;2022-07-18T13:24:14;32.75;;;11.07;;
28373;SDS011;15616;40.148;-102.718;2022-07-18T13:26:41;31.27;;;10.93;;
28373;SDS011;15616;40.148;-102.718;2022-07-18T13:29:07;34.45;;;11.23;;
28373;SDS011;15616;40.148;-102.718;2022-07-18T13:31:34;26.10;;;10.63;;
28373;SDS011;15616;40.148;-102.718;2022-07-18T13:34:01;22.48;;;11.55;;
28373;SDS011;15616;40.148;-102.718;2022-07-18T13:36:28;23.63;;;10.57;;
28373;SDS011;15616;40.148;-102.718;2022-07-18T13:38:54;27.63;;;10.35;;
28373;SDS011;15616;40.148;-102.718;2022-07-18T13:41:21;23.60;;;11.40;;
28373;SDS011;15616;40.148;-102.718;2022-07-18T13:43:47;23.52;;;11.82;;
28373;SDS011;15616;40.148;-102.718;2022-07-18T13:46:13;20.40;;;11.48;;
28373;SDS011;15616;40.148;-102.718;2022-07-18T13:48:39;25.45;;;12.82;;
28373;SDS011;15616;40.148;-102.718;2022-07-18T13:51:05;21.15;;;12.07;;
28373;SDS011;15616;40.148;-102.718;2022-07-18T13:53:32;20.13;;;11.82;;
28373;SDS011;15616;40.148;-102.718;2022-07-18T13:55:58;21.65;;;12.73;;
28373;SDS011;15616;40.148;-102.718;2022-07-18T13:58:24;22.65;;;12.38;;
28373;SDS011;15616;40.148;-102.718;2022-07-18T14:00:50;18.35;;;12.57;;
28373;SDS011;15616;40.148;-102.718;2022-07-18T14:03:16;17.85;;;11.85;;
28373;SDS011;15616;40.148;-102.718;2022-07-18T14:05:42;19.92;;;12.18;;
28373;SDS011;15616;40.148;-102.718;2022-07-18T14:08:09;17.75;;;12.25;;
28373;SDS011;15616;40.148;-102.718;2022-07-18T14:10:35;23.27;;;12.07;;
28373;SDS011;15616;40.148;-102.718;2022-07-18T14:13:02;17.67;;;11.18;;
28373;SDS011;15616;40.148;-102.718;2022-07-18T14:15:28;18.05;;;11.40;;
28373;SDS011;15616;40.148;-102.718;2022-07-18T14:17:55;19.15;;;11.07;;
28373;SDS011;15616;40.148;-102.718;2022-07-18T14:20:22;22.63;;;11.55;;
28373;SDS011;15616;40.148;-102.718;2022-07-18T14:22:48;20.42;;;11.77;;
28373;SDS011;15616;40.148;-102.718;2022-07-18T14:25:16;19.23;;;11.48;;
28373;SDS011;15616;40.148;-102.718;2022-07-18T14:27:43;21.58;;;12.07;;
28373;SDS011;15616;40.148;-102.718;2022-07-18T14:30:11;21.20;;;12.50;;
28373;SDS011;15616;40.148;-102.718;2022-07-18T14:32:39;17.55;;;11.82;;
28373;SDS011;15616;40.148;-102.718;2022-07-18T14:35:07;19.02;;;11.75;;
28373;SDS011;15616;40.148;-102.718;2022-07-18T14:37:34;23.52;;;12.38;;
28373;SDS011;15616;40.148;-102.718;2022-07-18T14:40:00;19.15;;;12.05;;
28373;SDS011;15616;40.148;-102.718;2022-07-18T14:42:26;19.75;;;11.60;;
28373;SDS011;15616;40.148;-102.718;2022-07-18T14:44:52;18.15;;;12.38;;
28373;SDS011;15616;40.148;-102.718;2022-07-18T14:47:19;26.95;;;12.10;;
28373;SDS011;15616;40.148;-102.718;2022-07-18T14:49:45;20.48;;;11.88;;
28373;SDS011;15616;40.148;-102.718;2022-07-18T14:52:11;16.90;;;11.23;;
28373;SDS011;15616;40.148;-102.718;2022-07-18T14:54:37;24.10;;;12.02;;